sensor_id;sensor_type;location;lat;lon;timestamp;P1;durP1;ratioP1;P2;durP2;ratioP2
21743;SDS011;11034;48.556;9.342;2022-07-23T00:00:50;9.43;;;7.20;;
21743;SDS011;11034;48.556;9.342;2022-07-23T00:03:18;7.60;;;6.78;;
21743;SDS011;11034;48.556;9.342;2022-07-23T00:05:46;7.85;;;6.95;;
21743;SDS011;11034;48.556;9.342;2022-07-23T00:08:14;9.88;;;6.60;;
21743;SDS011;11034;48.556;9.342;2022-07-23T00:10:43;8.70;;;6.65;;
21743;SDS011;11034;48.556;9.342;2022-07-23T00:13:11;12.10;;;6.55;;
21743;SDS011;11034;48.556;9.342;2022-07-23T00:15:39;8.13;;;7.20;;
21743;SDS011;11034;48.556;9.342;2022-07-23T00:18:08;7.38;;;6.40;;
21743;SDS011;11034;48.556;9.342;2022-07-23T00:20:36;7.70;;;6.82;;
21743;SDS011;11034;48.556;9.342;2022-07-23T00:23:03;6.93;;;6.13;;
21743;SDS011;11034;48.556;9.342;2022-07-23T00:25:31;8.38;;;6.60;;
21743;SDS011;11034;48.556;9.342;2022-07-23T00:28:01;7.35;;;6.65;;
21743;SDS011;11034;48.556;9.342;2022-07-23T00:30:30;6.95;;;5.72;;
21743;SDS011;11034;48.556;9.342;2022-07-23T00:32:59;6.03;;;5.45;;
21743;SDS011;11034;48.556;9.342;2022-07-23T00:35:30;8.65;;;6.20;;
21743;SDS011;11034;48.556;9.342;2022-07-23T00:38:00;8.70;;;5.70;;
21743;SDS011;11034;48.556;9.342;2022-07-23T00:40:28;7.82;;;6.07;;
21743;SDS011;11034;48.556;9.342;2022-07-23T00:42:57;8.52;;;6.38;;
21743;SDS011;11034;48.556;9.342;2022-07-23T00:45:27;9.60;;;6.32;;
21743;SDS011;11034;48.556;9.342;2022-07-23T00:47:56;7.95;;;6.60;;
21743;SDS011;11034;48.556;9.342;2022-07-23T00:50:24;8.23;;;6.90;;
21743;SDS011;11034;48.556;9.342;2022-07-23T00:52:52;10.13;;;7.63;;
21743;SDS011;11034;48.556;9.342;2022-07-23T00:55:20;9.15;;;7.38;;
21743;SDS011;11034;48.556;9.342;2022-07-23T00:57:49;8.82;;;7.88;;
21743;SDS011;11034;48.556;9.342;2022-07-23T01:00:18;10.32;;;7.90;;
21743;SDS011;11034;48.556;9.342;2022-07-23T01:02:47;10.85;;;7.93;;
21743;SDS011;11034;48.556;9.342;2022-07-23T01:05:15;8.70;;;7.70;;
21743;SDS011;11034;48.556;9.342;2022-07-23T01:07:48;8.75;;;6.90;;
21743;SDS011;11034;48.556;9.342;2022-07-23T01:10:21;8.60;;;6.95;;
21743;SDS011;11034;48.556;9.342;2022-07-23T01:12:59;10.55;;;7.70;;
21743;SDS011;11034;48.556;9.342;2022-07-23T01:15:29;8.75;;;7.50;;
21743;SDS011;11034;48.556;9.342;2022-07-23T01:17:58;7.82;;;6.95;;
21743;SDS011;11034;48.556;9.342;2022-07-23T01:20:26;8.38;;;7.05;;
21743;SDS011;11034;48.556;9.342;2022-07-23T01:22:56;8.65;;;7.43;;
21743;SDS011;11034;48.556;9.342;2022-07-23T01:25:24;8.10;;;7.03;;
21743;SDS011;11034;48.556;9.342;2022-07-23T01:27:52;7.90;;;7.10;;
21743;SDS011;11034;48.556;9.342;2022-07-23T01:30:21;9.35;;;6.45;;
21743;SDS011;11034;48.556;9.342;2022-07-23T01:32:49;8.25;;;6.15;;
21743;SDS011;11034;48.556;9.342;2022-07-23T01:35:17;7.05;;;6.05;;
21743;SDS011;11034;48.556;9.342;2022-07-23T01:37:45;6.85;;;5.95;;
21743;SDS011;11034;48.556;9.342;2022-07-23T01:40:14;7.35;;;6.13;;
21743;SDS011;11034;48.556;9.342;2022-07-23T01:42:44;7.38;;;6.30;;
21743;SDS011;11034;48.556;9.342;2022-07-23T01:45:12;7.00;;;6.15;;
21743;SDS011;11034;48.556;9.342;2022-07-23T01:47:40;7.63;;;6.40;;
21743;SDS011;11034;48.556;9.342;2022-07-23T01:50:09;7.10;;;6.40;;
21743;SDS011;11034;48.556;9.342;2022-07-23T01:52:37;6.20;;;5.60;;
21743;SDS011;11034;48.556;9.342;2022-07-23T01:55:05;7.07;;;5.93;;
21743;SDS011;11034;48.556;9.342;2022-07-23T01:57:35;6.70;;;5.20;;
21743;SDS011;11034;48.556;9.342;2022-07-23T02:00:04;6.45;;;5.75;;
21743;SDS011;11034;48.556;9.342;2022-07-23T02:02:33;7.28;;;5.70;;
21743;SDS011;11034;48.556;9.342;2022-07-23T02:05:01;5.97;;;5.38;;
21743;SDS011;11034;48.556;9.342;2022-07-23T02:07:29;9.50;;;6.07;;
21743;SDS011;11034;48.556;9.342;2022-07-23T02:10:00;6.85;;;5.45;;
21743;SDS011;11034;48.556;9.342;2022-07-23T02:12:28;7.18;;;5.43;;
21743;SDS011;11034;48.556;9.342;2022-07-23T02:14:57;5.90;;;5.20;;
21743;SDS011;11034;48.556;9.342;2022-07-23T02:17:25;8.35;;;6.10;;
21743;SDS011;11034;48.556;9.342;2022-07-23T02:19:53;8.18;;;6.43;;
21743;SDS011;11034;48.556;9.342;2022-07-23T02:22:21;7.97;;;6.53;;
21743;SDS011;11034;48.556;9.342;2022-07-23T02:24:49;7.70;;;6.47;;
21743;SDS011;11034;48.556;9.342;2022-07-23T02:27:17;8.18;;;6.78;;
21743;SDS011;11034;48.556;9.342;2022-07-23T02:29:45;10.00;;;7.30;;
21743;SDS011;11034;48.556;9.342;2022-07-23T02:32:15;9.38;;;7.20;;
21743;SDS011;11034;48.556;9.342;2022-07-23T02:34:43;9.63;;;7.38;;
21743;SDS011;11034;48.556;9.342;2022-07-23T02:37:11;8.60;;;7.20;;
21743;SDS011;11034;48.556;9.342;2022-07-23T02:39:39;8.88;;;6.78;;
21743;SDS011;11034;48.556;9.342;2022-07-23T02:42:08;7.85;;;7.05;;
21743;SDS011;11034;48.556;9.342;2022-07-23T02:44:36;7.80;;;6.47;;
21743;SDS011;11034;48.556;9.342;2022-07-23T02:47:04;8.68;;;7.03;;
21743;SDS011;11034;48.556;9.342;2022-07-23T02:49:33;7.25;;;6.40;;
21743;SDS011;11034;48.556;9.342;2022-07-23T02:52:02;7.78;;;6.93;;
21743;SDS011;11034;48.556;9.342;2022-07-23T02:54:30;7.72;;;6.75;;
21743;SDS011;11034;48.556;9.342;2022-07-23T02:56:58;10.93;;;6.60;;
21743;SDS011;11034;48.556;9.342;2022-07-23T02:59:26;7.50;;;6.22;;
21743;SDS011;11034;48.556;9.342;2022-07-23T03:01:54;7.05;;;6.20;;
21743;SDS011;11034;48.556;9.342;2022-07-23T03:04:22;7.65;;;6.40;;
21743;SDS011;11034;48.556;9.342;2022-07-23T03:06:52;7.85;;;6.25;;
21743;SDS011;11034;48.556;9.342;2022-07-23T03:09:19;8.50;;;6.28;;
21743;SDS011;11034;48.556;9.342;2022-07-23T03:11:47;6.93;;;6.25;;
21743;SDS011;11034;48.556;9.342;2022-07-23T03:14:15;7.57;;;6.20;;
21743;SDS011;11034;48.556;9.342;2022-07-23T03:16:43;7.07;;;6.38;;
21743;SDS011;11034;48.556;9.342;2022-07-23T03:19:12;7.75;;;6.97;;
21743;SDS011;11034;48.556;9.342;2022-07-23T03:21:40;9.93;;;7.00;;
21743;SDS011;11034;48.556;9.342;2022-07-23T03:24:09;7.47;;;6.53;;
21743;SDS011;11034;48.556;9.342;2022-07-23T03:26:37;8.20;;;7.00;;
21743;SDS011;11034;48.556;9.342;2022-07-23T03:29:06;7.72;;;6.38;;
21743;SDS011;11034;48.556;9.342;2022-07-23T03:31:34;8.80;;;6.80;;
21743;SDS011;11034;48.556;9.342;2022-07-23T03:34:02;9.52;;;6.93;;
21743;SDS011;11034;48.556;9.342;2022-07-23T03:36:30;7.63;;;6.82;;
21743;SDS011;11034;48.556;9.342;2022-07-23T03:38:58;8.85;;;7.10;;
21743;SDS011;11034;48.556;9.342;2022-07-23T03:41:29;9.07;;;6.53;;
21743;SDS011;11034;48.556;9.342;2022-07-23T03:43:57;9.00;;;6.93;;
21743;SDS011;11034;48.556;9.342;2022-07-23T03:46:25;8.45;;;7.13;;
21743;SDS011;11034;48.556;9.342;2022-07-23T03:48:54;9.77;;;6.45;;
21743;SDS011;11034;48.556;9.342;2022-07-23T03:51:24;8.65;;;7.22;;
21743;SDS011;11034;48.556;9.342;2022-07-23T03:53:52;9.15;;;6.80;;
21743;SDS011;11034;48.556;9.342;2022-07-23T03:56:21;8.65;;;6.82;;
21743;SDS011;11034;48.556;9.342;2022-07-23T03:58:51;7.90;;;6.50;;
21743;SDS011;11034;48.556;9.342;2022-07-23T04:01:18;9.48;;;7.10;;
21743;SDS011;11034;48.556;9.342;2022-07-23T04:03:47;8.57;;;6.93;;
21743;SDS011;11034;48.556;9.342;2022-07-23T04:06:15;8.63;;;6.97;;
21743;SDS011;11034;48.556;9.342;2022-07-23T04:08:43;11.02;;;6.78;;
21743;SDS011;11034;48.556;9.342;2022-07-23T04:11:11;9.00;;;7.35;;
21743;SDS011;11034;48.556;9.342;2022-07-23T04:13:39;10.77;;;7.20;;
21743;SDS011;11034;48.556;9.342;2022-07-23T04:16:08;6.93;;;6.22;;
21743;SDS011;11034;48.556;9.342;2022-07-23T04:18:37;8.25;;;7.20;;
21743;SDS011;11034;48.556;9.342;2022-07-23T04:21:05;9.93;;;7.22;;
21743;SDS011;11034;48.556;9.342;2022-07-23T04:23:33;7.72;;;6.88;;
21743;SDS011;11034;48.556;9.342;2022-07-23T04:26:01;8.38;;;6.50;;
21743;SDS011;11034;48.556;9.342;2022-07-23T04:28:29;8.48;;;6.95;;
21743;SDS011;11034;48.556;9.342;2022-07-23T04:30:57;9.15;;;6.88;;
21743;SDS011;11034;48.556;9.342;2022-07-23T04:33:27;7.50;;;6.68;;
21743;SDS011;11034;48.556;9.342;2022-07-23T04:35:55;7.75;;;6.90;;
21743;SDS011;11034;48.556;9.342;2022-07-23T04:38:23;9.40;;;7.13;;
21743;SDS011;11034;48.556;9.342;2022-07-23T04:40:51;7.55;;;6.78;;
21743;SDS011;11034;48.556;9.342;2022-07-23T04:43:19;10.13;;;7.30;;
21743;SDS011;11034;48.556;9.342;2022-07-23T04:45:47;7.97;;;6.60;;
21743;SDS011;11034;48.556;9.342;2022-07-23T04:48:16;8.63;;;6.50;;
21743;SDS011;11034;48.556;9.342;2022-07-23T04:50:45;7.28;;;6.30;;
21743;SDS011;11034;48.556;9.342;2022-07-23T04:53:13;8.40;;;6.75;;
21743;SDS011;11034;48.556;9.342;2022-07-23T04:55:41;7.10;;;6.40;;
21743;SDS011;11034;48.556;9.342;2022-07-23T04:58:10;9.50;;;6.85;;
21743;SDS011;11034;48.556;9.342;2022-07-23T05:00:38;9.45;;;6.65;;
21743;SDS011;11034;48.556;9.342;2022-07-23T05:03:05;8.73;;;6.75;;
21743;SDS011;11034;48.556;9.342;2022-07-23T05:05:33;7.63;;;6.32;;
21743;SDS011;11034;48.556;9.342;2022-07-23T05:08:04;7.07;;;6.25;;
21743;SDS011;11034;48.556;9.342;2022-07-23T05:10:33;9.02;;;6.40;;
21743;SDS011;11034;48.556;9.342;2022-07-23T05:13:01;8.43;;;6.47;;
21743;SDS011;11034;48.556;9.342;2022-07-23T05:15:29;7.22;;;6.47;;
21743;SDS011;11034;48.556;9.342;2022-07-23T05:17:57;6.93;;;6.00;;
21743;SDS011;11034;48.556;9.342;2022-07-23T05:20:25;7.15;;;6.45;;
21743;SDS011;11034;48.556;9.342;2022-07-23T05:22:53;7.35;;;6.07;;
21743;SDS011;11034;48.556;9.342;2022-07-23T05:25:23;7.47;;;6.60;;
21743;SDS011;11034;48.556;9.342;2022-07-23T05:27:51;7.00;;;6.30;;
21743;SDS011;11034;48.556;9.342;2022-07-23T05:30:19;8.05;;;6.65;;
21743;SDS011;11034;48.556;9.342;2022-07-23T05:32:47;7.55;;;6.70;;
21743;SDS011;11034;48.556;9.342;2022-07-23T05:35:16;7.93;;;7.10;;
21743;SDS011;11034;48.556;9.342;2022-07-23T05:37:44;9.65;;;6.85;;
21743;SDS011;11034;48.556;9.342;2022-07-23T05:40:12;8.57;;;6.90;;
21743;SDS011;11034;48.556;9.342;2022-07-23T05:42:42;8.30;;;7.10;;
21743;SDS011;11034;48.556;9.342;2022-07-23T05:45:10;8.27;;;7.00;;
21743;SDS011;11034;48.556;9.342;2022-07-23T05:47:41;10.05;;;7.05;;
21743;SDS011;11034;48.556;9.342;2022-07-23T05:50:10;7.57;;;6.78;;
21743;SDS011;11034;48.556;9.342;2022-07-23T05:52:39;8.85;;;6.72;;
21743;SDS011;11034;48.556;9.342;2022-07-23T05:55:08;10.02;;;7.70;;
21743;SDS011;11034;48.556;9.342;2022-07-23T05:57:37;8.40;;;7.18;;
21743;SDS011;11034;48.556;9.342;2022-07-23T06:00:08;11.07;;;7.60;;
21743;SDS011;11034;48.556;9.342;2022-07-23T06:02:38;8.18;;;7.35;;
21743;SDS011;11034;48.556;9.342;2022-07-23T06:05:07;7.97;;;7.18;;
21743;SDS011;11034;48.556;9.342;2022-07-23T06:07:36;8.27;;;7.20;;
21743;SDS011;11034;48.556;9.342;2022-07-23T06:10:05;10.45;;;7.32;;
21743;SDS011;11034;48.556;9.342;2022-07-23T06:12:34;8.45;;;6.10;;
21743;SDS011;11034;48.556;9.342;2022-07-23T06:15:02;7.30;;;6.55;;
21743;SDS011;11034;48.556;9.342;2022-07-23T06:17:38;7.18;;;6.35;;
21743;SDS011;11034;48.556;9.342;2022-07-23T06:20:07;7.38;;;6.47;;
21743;SDS011;11034;48.556;9.342;2022-07-23T06:22:37;7.90;;;6.30;;
21743;SDS011;11034;48.556;9.342;2022-07-23T06:25:05;7.35;;;6.35;;
21743;SDS011;11034;48.556;9.342;2022-07-23T06:27:44;6.80;;;6.20;;
21743;SDS011;11034;48.556;9.342;2022-07-23T06:30:13;7.75;;;6.68;;
21743;SDS011;11034;48.556;9.342;2022-07-23T06:32:45;7.10;;;6.40;;
21743;SDS011;11034;48.556;9.342;2022-07-23T06:35:13;7.00;;;6.22;;
21743;SDS011;11034;48.556;9.342;2022-07-23T06:37:42;7.68;;;6.13;;
21743;SDS011;11034;48.556;9.342;2022-07-23T06:40:13;7.13;;;6.40;;
21743;SDS011;11034;48.556;9.342;2022-07-23T06:42:41;7.68;;;6.53;;
21743;SDS011;11034;48.556;9.342;2022-07-23T06:45:09;8.15;;;6.10;;
21743;SDS011;11034;48.556;9.342;2022-07-23T06:47:37;7.05;;;6.28;;
21743;SDS011;11034;48.556;9.342;2022-07-23T06:50:08;6.57;;;5.97;;
21743;SDS011;11034;48.556;9.342;2022-07-23T06:52:36;8.73;;;6.15;;
21743;SDS011;11034;48.556;9.342;2022-07-23T06:55:08;9.40;;;6.88;;
21743;SDS011;11034;48.556;9.342;2022-07-23T06:57:36;7.47;;;6.55;;
21743;SDS011;11034;48.556;9.342;2022-07-23T07:00:05;6.82;;;6.15;;
21743;SDS011;11034;48.556;9.342;2022-07-23T07:02:36;8.93;;;6.50;;
21743;SDS011;11034;48.556;9.342;2022-07-23T07:05:04;6.88;;;6.10;;
21743;SDS011;11034;48.556;9.342;2022-07-23T07:07:34;7.22;;;6.10;;
21743;SDS011;11034;48.556;9.342;2022-07-23T07:10:02;6.38;;;5.78;;
21743;SDS011;11034;48.556;9.342;2022-07-23T07:12:31;7.47;;;6.03;;
21743;SDS011;11034;48.556;9.342;2022-07-23T07:14:59;6.75;;;6.03;;
21743;SDS011;11034;48.556;9.342;2022-07-23T07:17:27;8.75;;;6.32;;
21743;SDS011;11034;48.556;9.342;2022-07-23T07:19:55;6.47;;;5.88;;
21743;SDS011;11034;48.556;9.342;2022-07-23T07:22:23;8.38;;;6.80;;
21743;SDS011;11034;48.556;9.342;2022-07-23T07:24:55;7.15;;;6.45;;
21743;SDS011;11034;48.556;9.342;2022-07-23T07:27:25;8.43;;;6.53;;
21743;SDS011;11034;48.556;9.342;2022-07-23T07:29:53;7.82;;;6.30;;
21743;SDS011;11034;48.556;9.342;2022-07-23T07:32:21;8.57;;;6.38;;
21743;SDS011;11034;48.556;9.342;2022-07-23T07:35:09;7.47;;;6.75;;
21743;SDS011;11034;48.556;9.342;2022-07-23T07:37:37;9.13;;;6.40;;
21743;SDS011;11034;48.556;9.342;2022-07-23T07:40:07;8.10;;;6.65;;
21743;SDS011;11034;48.556;9.342;2022-07-23T07:42:44;7.85;;;6.50;;
21743;SDS011;11034;48.556;9.342;2022-07-23T07:45:13;7.22;;;6.40;;
21743;SDS011;11034;48.556;9.342;2022-07-23T07:47:41;7.25;;;6.22;;
21743;SDS011;11034;48.556;9.342;2022-07-23T07:50:10;8.63;;;6.45;;
21743;SDS011;11034;48.556;9.342;2022-07-23T07:52:39;7.63;;;6.82;;
21743;SDS011;11034;48.556;9.342;2022-07-23T07:55:09;10.90;;;6.82;;
21743;SDS011;11034;48.556;9.342;2022-07-23T07:57:38;7.35;;;6.60;;
21743;SDS011;11034;48.556;9.342;2022-07-23T08:00:07;7.93;;;6.28;;
21743;SDS011;11034;48.556;9.342;2022-07-23T08:02:40;7.15;;;6.45;;
21743;SDS011;11034;48.556;9.342;2022-07-23T08:05:09;8.90;;;7.03;;
21743;SDS011;11034;48.556;9.342;2022-07-23T08:07:38;9.20;;;6.88;;
21743;SDS011;11034;48.556;9.342;2022-07-23T08:10:08;7.10;;;6.35;;
21743;SDS011;11034;48.556;9.342;2022-07-23T08:12:41;9.43;;;6.97;;
21743;SDS011;11034;48.556;9.342;2022-07-23T08:15:11;8.98;;;6.72;;
21743;SDS011;11034;48.556;9.342;2022-07-23T08:17:40;7.70;;;7.00;;
21743;SDS011;11034;48.556;9.342;2022-07-23T08:20:09;8.43;;;7.57;;
21743;SDS011;11034;48.556;9.342;2022-07-23T08:22:45;9.30;;;7.07;;
21743;SDS011;11034;48.556;9.342;2022-07-23T08:25:21;9.32;;;6.97;;
21743;SDS011;11034;48.556;9.342;2022-07-23T08:27:51;8.50;;;6.85;;
21743;SDS011;11034;48.556;9.342;2022-07-23T08:30:20;9.48;;;6.53;;
21743;SDS011;11034;48.556;9.342;2022-07-23T08:32:53;7.28;;;6.53;;
21743;SDS011;11034;48.556;9.342;2022-07-23T08:35:25;7.50;;;6.55;;
21743;SDS011;11034;48.556;9.342;2022-07-23T08:37:56;9.20;;;7.07;;
21743;SDS011;11034;48.556;9.342;2022-07-23T08:40:27;7.82;;;7.03;;
21743;SDS011;11034;48.556;9.342;2022-07-23T08:42:56;8.13;;;7.38;;
21743;SDS011;11034;48.556;9.342;2022-07-23T08:45:25;9.50;;;7.05;;
21743;SDS011;11034;48.556;9.342;2022-07-23T08:47:55;7.38;;;6.70;;
21743;SDS011;11034;48.556;9.342;2022-07-23T08:50:28;8.55;;;7.28;;
21743;SDS011;11034;48.556;9.342;2022-07-23T08:52:56;7.65;;;6.95;;
21743;SDS011;11034;48.556;9.342;2022-07-23T08:55:27;7.93;;;7.07;;
21743;SDS011;11034;48.556;9.342;2022-07-23T08:57:55;8.63;;;7.30;;
21743;SDS011;11034;48.556;9.342;2022-07-23T09:00:23;8.10;;;7.28;;
21743;SDS011;11034;48.556;9.342;2022-07-23T09:02:52;8.25;;;7.43;;
21743;SDS011;11034;48.556;9.342;2022-07-23T09:05:20;9.13;;;6.63;;
21743;SDS011;11034;48.556;9.342;2022-07-23T09:08:10;9.40;;;6.97;;
21743;SDS011;11034;48.556;9.342;2022-07-23T09:10:48;8.75;;;6.90;;
21743;SDS011;11034;48.556;9.342;2022-07-23T09:13:28;7.43;;;6.72;;
21743;SDS011;11034;48.556;9.342;2022-07-23T09:15:58;8.07;;;7.28;;
21743;SDS011;11034;48.556;9.342;2022-07-23T09:18:29;9.77;;;7.40;;
21743;SDS011;11034;48.556;9.342;2022-07-23T09:21:16;8.82;;;7.93;;
21743;SDS011;11034;48.556;9.342;2022-07-23T09:23:47;10.00;;;7.78;;
21743;SDS011;11034;48.556;9.342;2022-07-23T09:26:26;8.25;;;6.43;;
21743;SDS011;11034;48.556;9.342;2022-07-23T09:29:03;7.10;;;6.40;;
21743;SDS011;11034;48.556;9.342;2022-07-23T09:31:43;10.60;;;6.55;;
21743;SDS011;11034;48.556;9.342;2022-07-23T09:34:15;8.13;;;7.07;;
21743;SDS011;11034;48.556;9.342;2022-07-23T09:36:49;8.00;;;6.72;;
21743;SDS011;11034;48.556;9.342;2022-07-23T09:39:25;7.47;;;6.72;;
21743;SDS011;11034;48.556;9.342;2022-07-23T09:41:55;11.00;;;7.22;;
21743;SDS011;11034;48.556;9.342;2022-07-23T09:44:40;9.95;;;6.80;;
21743;SDS011;11034;48.556;9.342;2022-07-23T09:47:09;8.85;;;6.93;;
21743;SDS011;11034;48.556;9.342;2022-07-23T09:49:37;10.82;;;7.35;;
21743;SDS011;11034;48.556;9.342;2022-07-23T09:52:08;9.73;;;7.20;;
21743;SDS011;11034;48.556;9.342;2022-07-23T09:54:37;8.23;;;6.85;;
21743;SDS011;11034;48.556;9.342;2022-07-23T09:57:08;9.43;;;7.25;;
21743;SDS011;11034;48.556;9.342;2022-07-23T09:59:41;8.15;;;7.35;;
21743;SDS011;11034;48.556;9.342;2022-07-23T10:02:10;9.80;;;7.88;;
21743;SDS011;11034;48.556;9.342;2022-07-23T10:04:41;8.02;;;7.07;;
21743;SDS011;11034;48.556;9.342;2022-07-23T10:07:10;7.95;;;7.15;;
21743;SDS011;11034;48.556;9.342;2022-07-23T10:09:40;7.72;;;6.93;;
21743;SDS011;11034;48.556;9.342;2022-07-23T10:12:11;9.82;;;7.15;;
21743;SDS011;11034;48.556;9.342;2022-07-23T10:14:48;8.93;;;7.22;;
21743;SDS011;11034;48.556;9.342;2022-07-23T10:17:17;9.18;;;7.40;;
21743;SDS011;11034;48.556;9.342;2022-07-23T10:19:45;8.68;;;7.22;;
21743;SDS011;11034;48.556;9.342;2022-07-23T10:22:14;9.70;;;7.15;;
21743;SDS011;11034;48.556;9.342;2022-07-23T10:25:03;11.85;;;8.15;;
21743;SDS011;11034;48.556;9.342;2022-07-23T10:27:43;10.07;;;7.70;;
21743;SDS011;11034;48.556;9.342;2022-07-23T10:30:25;8.85;;;7.95;;
21743;SDS011;11034;48.556;9.342;2022-07-23T10:33:03;9.00;;;7.97;;
21743;SDS011;11034;48.556;9.342;2022-07-23T10:35:44;10.45;;;7.60;;
21743;SDS011;11034;48.556;9.342;2022-07-23T10:38:18;8.95;;;7.28;;
21743;SDS011;11034;48.556;9.342;2022-07-23T10:40:55;9.00;;;7.50;;
21743;SDS011;11034;48.556;9.342;2022-07-23T10:43:26;9.63;;;8.55;;
21743;SDS011;11034;48.556;9.342;2022-07-23T10:45:56;11.23;;;7.72;;
21743;SDS011;11034;48.556;9.342;2022-07-23T10:54:45;8.93;;;6.75;;
21743;SDS011;11034;48.556;9.342;2022-07-23T10:57:15;9.25;;;7.53;;
21743;SDS011;11034;48.556;9.342;2022-07-23T11:02:48;8.55;;;7.63;;
21743;SDS011;11034;48.556;9.342;2022-07-23T11:05:17;8.23;;;7.43;;
21743;SDS011;11034;48.556;9.342;2022-07-23T11:10:53;9.10;;;7.53;;
21743;SDS011;11034;48.556;9.342;2022-07-23T11:13:31;9.77;;;7.90;;
21743;SDS011;11034;48.556;9.342;2022-07-23T11:16:11;8.98;;;8.07;;
21743;SDS011;11034;48.556;9.342;2022-07-23T11:19:05;8.30;;;7.40;;
21743;SDS011;11034;48.556;9.342;2022-07-23T11:21:41;8.60;;;7.57;;
21743;SDS011;11034;48.556;9.342;2022-07-23T11:24:14;10.32;;;8.38;;
21743;SDS011;11034;48.556;9.342;2022-07-23T11:26:44;8.10;;;7.40;;
21743;SDS011;11034;48.556;9.342;2022-07-23T11:32:31;9.93;;;6.90;;
21743;SDS011;11034;48.556;9.342;2022-07-23T11:35:03;8.45;;;7.55;;
21743;SDS011;11034;48.556;9.342;2022-07-23T11:37:46;7.80;;;7.10;;
21743;SDS011;11034;48.556;9.342;2022-07-23T11:40:15;7.95;;;7.15;;
21743;SDS011;11034;48.556;9.342;2022-07-23T11:42:54;7.70;;;7.00;;
21743;SDS011;11034;48.556;9.342;2022-07-23T11:45:31;8.50;;;7.70;;
21743;SDS011;11034;48.556;9.342;2022-07-23T11:48:02;8.90;;;7.90;;
21743;SDS011;11034;48.556;9.342;2022-07-23T11:50:31;10.18;;;7.63;;
21743;SDS011;11034;48.556;9.342;2022-07-23T11:52:59;8.77;;;7.28;;
21743;SDS011;11034;48.556;9.342;2022-07-23T11:55:30;8.52;;;7.72;;
21743;SDS011;11034;48.556;9.342;2022-07-23T11:57:58;8.25;;;7.45;;
21743;SDS011;11034;48.556;9.342;2022-07-23T12:00:27;7.90;;;6.70;;
21743;SDS011;11034;48.556;9.342;2022-07-23T12:02:57;7.93;;;7.00;;
21743;SDS011;11034;48.556;9.342;2022-07-23T12:05:29;7.68;;;7.03;;
21743;SDS011;11034;48.556;9.342;2022-07-23T12:07:58;10.73;;;7.65;;
21743;SDS011;11034;48.556;9.342;2022-07-23T12:10:28;7.78;;;7.03;;
21743;SDS011;11034;48.556;9.342;2022-07-23T12:12:58;9.40;;;7.63;;
21743;SDS011;11034;48.556;9.342;2022-07-23T12:15:27;8.40;;;7.60;;
21743;SDS011;11034;48.556;9.342;2022-07-23T12:17:59;7.70;;;6.90;;
21743;SDS011;11034;48.556;9.342;2022-07-23T12:20:30;7.95;;;7.10;;
21743;SDS011;11034;48.556;9.342;2022-07-23T12:23:01;8.07;;;7.32;;
21743;SDS011;11034;48.556;9.342;2022-07-23T12:25:31;11.43;;;7.57;;
21743;SDS011;11034;48.556;9.342;2022-07-23T12:28:02;8.07;;;7.25;;
21743;SDS011;11034;48.556;9.342;2022-07-23T12:30:33;11.63;;;7.38;;
21743;SDS011;11034;48.556;9.342;2022-07-23T12:33:04;10.93;;;7.45;;
21743;SDS011;11034;48.556;9.342;2022-07-23T12:35:36;7.63;;;6.93;;
21743;SDS011;11034;48.556;9.342;2022-07-23T12:38:07;8.55;;;7.28;;
21743;SDS011;11034;48.556;9.342;2022-07-23T12:40:37;7.72;;;6.55;;
21743;SDS011;11034;48.556;9.342;2022-07-23T12:43:10;9.15;;;7.30;;
21743;SDS011;11034;48.556;9.342;2022-07-23T12:45:46;7.05;;;6.35;;
21743;SDS011;11034;48.556;9.342;2022-07-23T12:48:18;8.35;;;6.68;;
21743;SDS011;11034;48.556;9.342;2022-07-23T12:50:54;8.00;;;6.70;;
21743;SDS011;11034;48.556;9.342;2022-07-23T12:53:24;7.53;;;6.78;;
21743;SDS011;11034;48.556;9.342;2022-07-23T12:56:02;7.28;;;6.57;;
21743;SDS011;11034;48.556;9.342;2022-07-23T12:58:42;7.97;;;6.68;;
21743;SDS011;11034;48.556;9.342;2022-07-23T13:01:27;9.63;;;6.93;;
21743;SDS011;11034;48.556;9.342;2022-07-23T13:04:00;8.48;;;7.10;;
21743;SDS011;11034;48.556;9.342;2022-07-23T13:06:40;6.95;;;6.35;;
21743;SDS011;11034;48.556;9.342;2022-07-23T13:09:11;8.70;;;6.85;;
21743;SDS011;11034;48.556;9.342;2022-07-23T13:11:41;6.90;;;6.30;;
21743;SDS011;11034;48.556;9.342;2022-07-23T13:14:09;6.75;;;6.03;;
21743;SDS011;11034;48.556;9.342;2022-07-23T13:16:38;8.77;;;6.18;;
21743;SDS011;11034;48.556;9.342;2022-07-23T13:19:07;7.57;;;6.32;;
21743;SDS011;11034;48.556;9.342;2022-07-23T13:21:38;7.00;;;6.30;;
21743;SDS011;11034;48.556;9.342;2022-07-23T13:24:10;7.10;;;6.25;;
21743;SDS011;11034;48.556;9.342;2022-07-23T13:26:39;6.90;;;6.20;;
21743;SDS011;11034;48.556;9.342;2022-07-23T13:29:08;7.18;;;6.47;;
21743;SDS011;11034;48.556;9.342;2022-07-23T13:31:37;7.43;;;6.70;;
21743;SDS011;11034;48.556;9.342;2022-07-23T13:34:06;7.20;;;6.50;;
21743;SDS011;11034;48.556;9.342;2022-07-23T13:36:34;7.50;;;6.20;;
21743;SDS011;11034;48.556;9.342;2022-07-23T13:39:04;6.95;;;6.32;;
21743;SDS011;11034;48.556;9.342;2022-07-23T13:41:35;8.18;;;6.13;;
21743;SDS011;11034;48.556;9.342;2022-07-23T13:44:03;6.80;;;6.10;;
21743;SDS011;11034;48.556;9.342;2022-07-23T13:46:32;7.63;;;6.10;;
21743;SDS011;11034;48.556;9.342;2022-07-23T13:49:01;7.15;;;6.45;;
21743;SDS011;11034;48.556;9.342;2022-07-23T13:51:32;6.57;;;5.97;;
21743;SDS011;11034;48.556;9.342;2022-07-23T13:54:00;7.20;;;6.22;;
21743;SDS011;11034;48.556;9.342;2022-07-23T13:56:30;7.05;;;6.00;;
21743;SDS011;11034;48.556;9.342;2022-07-23T13:58:58;7.07;;;5.82;;
21743;SDS011;11034;48.556;9.342;2022-07-23T14:01:27;8.00;;;6.15;;
21743;SDS011;11034;48.556;9.342;2022-07-23T14:04:11;6.93;;;6.10;;
21743;SDS011;11034;48.556;9.342;2022-07-23T14:06:39;6.90;;;6.20;;
21743;SDS011;11034;48.556;9.342;2022-07-23T14:09:07;7.10;;;5.82;;
21743;SDS011;11034;48.556;9.342;2022-07-23T14:11:37;8.05;;;6.32;;
21743;SDS011;11034;48.556;9.342;2022-07-23T14:14:05;7.38;;;6.20;;
21743;SDS011;11034;48.556;9.342;2022-07-23T14:16:33;7.25;;;6.38;;
21743;SDS011;11034;48.556;9.342;2022-07-23T14:19:01;7.03;;;5.90;;
21743;SDS011;11034;48.556;9.342;2022-07-23T14:21:30;7.00;;;6.30;;
21743;SDS011;11034;48.556;9.342;2022-07-23T14:23:59;6.80;;;6.10;;
21743;SDS011;11034;48.556;9.342;2022-07-23T14:26:27;7.15;;;6.32;;
21743;SDS011;11034;48.556;9.342;2022-07-23T14:28:56;7.05;;;6.18;;
21743;SDS011;11034;48.556;9.342;2022-07-23T14:31:26;7.68;;;6.45;;
21743;SDS011;11034;48.556;9.342;2022-07-23T14:33:54;7.50;;;6.05;;
21743;SDS011;11034;48.556;9.342;2022-07-23T14:36:25;8.32;;;6.57;;
21743;SDS011;11034;48.556;9.342;2022-07-23T14:38:53;6.93;;;6.22;;
21743;SDS011;11034;48.556;9.342;2022-07-23T14:41:22;7.20;;;6.50;;
21743;SDS011;11034;48.556;9.342;2022-07-23T14:43:53;6.88;;;6.13;;
21743;SDS011;11034;48.556;9.342;2022-07-23T14:46:23;9.05;;;6.40;;
21743;SDS011;11034;48.556;9.342;2022-07-23T14:48:51;7.10;;;6.25;;
21743;SDS011;11034;48.556;9.342;2022-07-23T14:51:20;7.32;;;6.18;;
21743;SDS011;11034;48.556;9.342;2022-07-23T14:53:50;8.00;;;6.47;;
21743;SDS011;11034;48.556;9.342;2022-07-23T14:56:18;7.30;;;6.57;;
21743;SDS011;11034;48.556;9.342;2022-07-23T14:58:47;7.32;;;6.60;;
21743;SDS011;11034;48.556;9.342;2022-07-23T15:01:15;6.75;;;6.03;;
21743;SDS011;11034;48.556;9.342;2022-07-23T15:03:46;8.60;;;6.63;;
21743;SDS011;11034;48.556;9.342;2022-07-23T15:06:14;8.90;;;6.00;;
21743;SDS011;11034;48.556;9.342;2022-07-23T15:08:47;7.72;;;6.03;;
21743;SDS011;11034;48.556;9.342;2022-07-23T15:11:17;6.82;;;6.13;;
21743;SDS011;11034;48.556;9.342;2022-07-23T15:13:45;8.85;;;6.47;;
21743;SDS011;11034;48.556;9.342;2022-07-23T15:16:14;9.80;;;6.32;;
21743;SDS011;11034;48.556;9.342;2022-07-23T15:18:51;7.55;;;6.60;;